createdAt,value
2022-12-09T00:00:21.254Z,71.81
2022-12-09T00:02:49.062Z,71.14
2022-12-09T00:05:17.571Z,70.70
2022-12-09T00:07:45.574Z,71.56
2022-12-09T00:10:13.442Z,71.62
2022-12-09T00:12:42.630Z,70.93
2022-12-09T00:15:11.202Z,70.40
2022-12-09T00:17:38.981Z,70.64
2022-12-09T00:20:08.770Z,71.28
2022-12-09T00:22:36.549Z,71.45
2022-12-09T00:25:04.863Z,71.94
2022-12-09T00:27:32.663Z,72.46
2022-12-09T00:30:01.923Z,72.45
2022-12-09T00:32:29.686Z,72.03
2022-12-09T00:34:57.764Z,71.47
2022-12-09T00:37:25.528Z,71.55
2022-12-09T00:39:53.227Z,71.92
2022-12-09T00:42:21.206Z,72.17
2022-12-09T00:44:49.193Z,72.11
2022-12-09T00:47:18.714Z,72.01
2022-12-09T00:49:46.398Z,72.42
2022-12-09T00:52:14.185Z,72.56
2022-12-09T00:54:42.195Z,72.95
2022-12-09T00:57:10.128Z,73.01
2022-12-09T00:59:37.960Z,73.28
2022-12-09T01:02:05.765Z,73.12
2022-12-09T01:04:35.170Z,72.94
2022-12-09T01:07:03.083Z,72.43
2022-12-09T01:09:30.981Z,71.58
2022-12-09T01:11:59.044Z,70.78
2022-12-09T01:14:26.910Z,70.51
2022-12-09T01:16:54.758Z,70.91
2022-12-09T01:19:22.696Z,71.50
2022-12-09T01:21:54.905Z,72.07
2022-12-09T01:24:23.062Z,72.40
2022-12-09T01:26:50.768Z,72.57
2022-12-09T01:29:18.486Z,72.56
2022-12-09T01:31:46.243Z,72.04
2022-12-09T01:34:13.995Z,71.47
2022-12-09T01:36:41.751Z,71.15
2022-12-09T01:39:11.597Z,70.53
2022-12-09T01:41:39.622Z,71.08
2022-12-09T01:44:13.134Z,71.87
2022-12-09T01:46:41.628Z,71.83
2022-12-09T01:49:13.233Z,71.66
2022-12-09T01:51:41.929Z,72.26
2022-12-09T01:54:11.045Z,72.83
2022-12-09T01:56:41.621Z,73.28
2022-12-09T01:59:11.781Z,72.98
2022-12-09T02:01:40.426Z,72.36
2022-12-09T02:04:09.102Z,72.53
2022-12-09T02:06:38.010Z,72.91
2022-12-09T02:09:06.642Z,73.48
2022-12-09T02:11:46.171Z,73.69
2022-12-09T02:14:19.267Z,73.61
2022-12-09T02:16:57.240Z,72.99
2022-12-09T02:19:40.573Z,71.91
2022-12-09T02:22:12.103Z,72.01
2022-12-09T02:24:44.946Z,72.82
2022-12-09T02:27:20.042Z,73.44
2022-12-09T02:30:00.401Z,73.03
2022-12-09T02:33:00.108Z,72.27
2022-12-09T02:35:37.311Z,71.79
2022-12-09T02:38:10.589Z,72.33
2022-12-09T02:40:45.661Z,72.06
2022-12-09T02:43:16.260Z,71.74
2022-12-09T02:45:45.272Z,71.51
2022-12-09T02:48:17.122Z,71.44
2022-12-09T02:50:48.251Z,71.12
2022-12-09T02:53:17.268Z,71.89
2022-12-09T02:55:49.040Z,72.46
2022-12-09T02:58:16.841Z,73.19
2022-12-09T03:00:44.923Z,73.47
2022-12-09T03:03:17.605Z,73.86
2022-12-09T03:05:53.068Z,73.77
2022-12-09T03:08:32.617Z,73.13
2022-12-09T03:11:04.498Z,73.39
2022-12-09T03:13:51.821Z,73.70
2022-12-09T03:16:26.844Z,73.65
2022-12-09T03:18:59.665Z,73.52
2022-12-09T03:21:32.986Z,73.81
2022-12-09T03:24:03.190Z,73.95
2022-12-09T03:26:34.566Z,74.16
2022-12-09T03:29:05.353Z,74.52
2022-12-09T03:31:35.743Z,74.31
2022-12-09T03:34:06.369Z,74.09
2022-12-09T03:36:39.264Z,74.64
2022-12-09T03:39:11.811Z,74.91
2022-12-09T03:41:45.048Z,74.92
2022-12-09T03:44:15.250Z,75.41
2022-12-09T03:46:43.527Z,75.58
2022-12-09T03:49:12.260Z,75.90
2022-12-09T03:51:45.426Z,75.36
2022-12-09T03:54:20.434Z,74.77
2022-12-09T03:56:52.805Z,74.77
2022-12-09T03:59:23.266Z,74.42
2022-12-09T04:01:52.217Z,73.34
2022-12-09T04:04:20.544Z,73.41
2022-12-09T04:06:53.599Z,73.87
2022-12-09T04:09:21.582Z,73.64
2022-12-09T04:11:49.381Z,73.72
2022-12-09T04:14:17.195Z,73.92
2022-12-09T04:16:45.493Z,73.81
2022-12-09T04:19:13.687Z,73.89
2022-12-09T04:21:42.032Z,74.07
2022-12-09T04:24:11.509Z,74.27
2022-12-09T04:26:39.450Z,74.48
2022-12-09T04:29:07.675Z,74.26
2022-12-09T04:31:35.844Z,74.12
2022-12-09T04:34:09.163Z,74.02
2022-12-09T04:36:38.117Z,73.85
2022-12-09T04:39:06.155Z,73.92
2022-12-09T04:41:35.348Z,74.59
2022-12-09T04:44:03.162Z,74.52
2022-12-09T04:46:31.027Z,74.98
2022-12-09T04:48:59.077Z,74.83
2022-12-09T04:51:26.900Z,74.47
2022-12-09T04:53:54.981Z,74.21
2022-12-09T04:56:23.637Z,73.56
2022-12-09T04:58:53.121Z,73.45
2022-12-09T05:01:30.587Z,72.37
2022-12-09T05:03:59.663Z,72.26
2022-12-09T05:06:28.258Z,72.69
2022-12-09T05:08:56.648Z,73.43
2022-12-09T05:11:25.074Z,73.65
2022-12-09T05:13:55.307Z,73.74
2022-12-09T05:16:23.991Z,74.45
2022-12-09T05:18:52.393Z,74.63
2022-12-09T05:21:21.819Z,74.45
2022-12-09T05:23:50.375Z,74.06
2022-12-09T05:26:21.292Z,73.89
2022-12-09T05:28:49.476Z,73.44
2022-12-09T05:31:20.875Z,73.29
2022-12-09T05:33:50.425Z,73.25
2022-12-09T05:36:20.366Z,73.72
2022-12-09T05:38:49.020Z,74.19
2022-12-09T05:41:17.165Z,74.83
2022-12-09T05:43:45.212Z,75.03
2022-12-09T05:46:14.789Z,75.02
2022-12-09T05:48:45.063Z,74.93
2022-12-09T05:51:16.178Z,74.77
2022-12-09T05:53:44.580Z,73.77
2022-12-09T05:56:16.368Z,73.15
2022-12-09T05:58:45.021Z,73.62
2022-12-09T06:01:13.695Z,73.81
2022-12-09T06:03:42.056Z,73.72
2022-12-09T06:06:13.741Z,73.66
2022-12-09T06:08:43.644Z,74.20
2022-12-09T06:11:14.452Z,74.36
2022-12-09T06:13:42.449Z,73.54
2022-12-09T06:16:11.287Z,72.76
2022-12-09T06:18:39.421Z,72.44
2022-12-09T06:21:09.274Z,72.84
2022-12-09T06:23:41.416Z,72.65
2022-12-09T06:26:17.807Z,72.41
2022-12-09T06:28:46.264Z,73.06
2022-12-09T06:31:14.199Z,73.72
2022-12-09T06:33:59.042Z,74.27
2022-12-09T06:36:29.177Z,74.41
2022-12-09T06:39:07.616Z,74.65
2022-12-09T06:41:38.137Z,74.61
2022-12-09T06:44:06.772Z,74.66
2022-12-09T06:46:34.746Z,74.59
2022-12-09T06:49:02.741Z,74.66
2022-12-09T06:51:30.744Z,74.65
2022-12-09T06:53:59.916Z,74.58
2022-12-09T06:56:27.843Z,74.65
2022-12-09T06:58:55.595Z,74.36
2022-12-09T07:01:25.927Z,74.12
2022-12-09T07:03:56.050Z,74.15
2022-12-09T07:06:28.802Z,74.33
2022-12-09T07:09:00.163Z,74.36
2022-12-09T07:11:29.062Z,74.44
2022-12-09T07:13:57.026Z,74.53
2022-12-09T07:16:25.227Z,74.43
2022-12-09T07:18:53.848Z,74.26
2022-12-09T07:21:23.382Z,74.25
2022-12-09T07:23:51.884Z,74.45
2022-12-09T07:26:22.221Z,74.79
2022-12-09T07:28:50.582Z,74.69
2022-12-09T07:31:22.370Z,74.96
2022-12-09T07:33:51.572Z,75.37
2022-12-09T07:36:21.443Z,75.11
2022-12-09T07:38:50.338Z,75.00
2022-12-09T07:41:19.388Z,75.24
2022-12-09T07:43:49.665Z,74.67
2022-12-09T07:46:19.913Z,74.65
2022-12-09T07:48:48.343Z,74.56
2022-12-09T07:51:17.142Z,74.49
2022-12-09T07:53:45.406Z,74.58
2022-12-09T07:56:15.682Z,74.48
2022-12-09T07:58:44.611Z,74.77
2022-12-09T08:01:16.756Z,75.06
2022-12-09T08:03:45.314Z,74.79
2022-12-09T08:06:15.174Z,74.71
2022-12-09T08:08:44.260Z,74.50
2022-12-09T08:11:14.653Z,74.10
2022-12-09T08:13:43.155Z,74.07
2022-12-09T08:16:14.187Z,73.97
2022-12-09T08:18:43.945Z,73.84
2022-12-09T08:21:14.001Z,73.74
2022-12-09T08:23:42.661Z,73.34
2022-12-09T08:26:11.925Z,73.16
2022-12-09T08:28:40.242Z,72.51
2022-12-09T08:31:09.432Z,72.22
2022-12-09T08:33:39.102Z,72.15
2022-12-09T08:36:12.314Z,72.01
2022-12-09T08:38:40.220Z,70.82
2022-12-09T08:41:14.959Z,70.21
2022-12-09T08:43:44.272Z,70.02
2022-12-09T08:46:13.837Z,70.10
2022-12-09T08:48:44.620Z,70.13
2022-12-09T08:51:13.357Z,70.02
2022-12-09T08:53:41.562Z,69.97
2022-12-09T08:56:11.857Z,70.04
2022-12-09T08:58:40.313Z,70.06
2022-12-09T09:01:09.000Z,69.80
2022-12-09T09:03:37.400Z,69.47
2022-12-09T09:06:10.831Z,69.54
2022-12-09T09:08:39.987Z,69.34
2022-12-09T09:11:11.522Z,69.43
2022-12-09T09:13:40.706Z,69.34
2022-12-09T09:16:11.389Z,68.99
2022-12-09T09:18:40.190Z,68.40
2022-12-09T09:21:11.050Z,68.42
2022-12-09T09:23:39.389Z,68.86
2022-12-09T09:26:12.435Z,68.53
2022-12-09T09:28:40.604Z,67.71
2022-12-09T09:31:12.513Z,67.08
2022-12-09T09:33:40.736Z,66.86
2022-12-09T09:36:15.112Z,66.48
2022-12-09T09:38:43.311Z,66.53
2022-12-09T09:41:21.783Z,66.69
2022-12-09T09:43:50.047Z,66.66
2022-12-09T09:46:22.476Z,66.54
2022-12-09T09:48:52.907Z,66.43
2022-12-09T09:51:23.021Z,66.74
2022-12-09T09:53:53.384Z,67.32
2022-12-09T09:56:29.282Z,67.07
2022-12-09T09:59:08.290Z,66.69
2022-12-09T10:01:38.797Z,66.74
2022-12-09T10:04:14.935Z,66.33
2022-12-09T10:06:51.195Z,65.12
2022-12-09T10:09:23.908Z,63.76
2022-12-09T10:12:04.697Z,62.05
2022-12-09T10:14:44.574Z,61.72
2022-12-09T10:17:25.121Z,61.92
2022-12-09T10:19:56.899Z,62.43
2022-12-09T10:22:30.655Z,62.16
2022-12-09T10:25:00.919Z,61.88
2022-12-09T10:27:32.280Z,61.16
2022-12-09T10:30:03.627Z,57.65
2022-12-09T10:32:34.833Z,52.43
2022-12-09T10:35:14.542Z,50.25
2022-12-09T10:37:44.585Z,50.41
2022-12-09T10:40:23.121Z,49.65
2022-12-09T10:43:11.011Z,47.45
2022-12-09T10:46:16.644Z,45.40
2022-12-09T10:48:38.558Z,44.50
2022-12-09T10:51:11.533Z,45.43
2022-12-09T10:53:46.746Z,46.20
2022-12-09T10:56:19.391Z,46.79
2022-12-09T10:58:47.375Z,47.13
2022-12-09T11:01:17.441Z,45.92
2022-12-09T11:03:50.754Z,45.00
2022-12-09T11:06:28.384Z,44.13
2022-12-09T11:09:00.296Z,44.61
2022-12-09T11:11:46.357Z,44.75
2022-12-09T11:14:26.431Z,46.04
2022-12-09T11:16:56.595Z,46.86
2022-12-09T11:19:37.082Z,46.70
2022-12-09T11:22:22.121Z,46.91
2022-12-09T11:24:54.642Z,48.19
2022-12-09T11:27:28.923Z,50.16
2022-12-09T11:30:13.077Z,51.21
2022-12-09T11:32:57.705Z,52.46
2022-12-09T11:35:32.181Z,53.39
2022-12-09T11:38:03.825Z,53.36
2022-12-09T11:40:33.736Z,54.49
2022-12-09T11:43:01.699Z,54.96
2022-12-09T11:45:32.093Z,55.36
2022-12-09T11:48:32.005Z,55.14
2022-12-09T11:51:03.208Z,55.24
2022-12-09T11:53:32.476Z,55.50
2022-12-09T11:56:08.278Z,55.41
2022-12-09T11:58:41.940Z,55.77
2022-12-09T12:01:15.508Z,56.14
2022-12-09T12:03:51.193Z,57.52
2022-12-09T12:06:23.307Z,57.58
2022-12-09T12:08:54.601Z,58.00
2022-12-09T12:11:28.034Z,57.53
2022-12-09T12:14:02.623Z,57.78
2022-12-09T12:16:39.433Z,58.08
2022-12-09T12:19:14.671Z,57.91
2022-12-09T12:22:07.488Z,57.02
2022-12-09T12:25:02.624Z,57.78
2022-12-09T12:27:47.757Z,58.21
2022-12-09T12:30:19.463Z,58.27
2022-12-09T12:33:59.715Z,58.58
2022-12-09T12:35:58.467Z,58.96
2022-12-09T12:38:36.961Z,58.57
2022-12-09T12:41:12.995Z,59.17
2022-12-09T12:44:23.052Z,59.58
2022-12-09T12:47:03.247Z,59.66
2022-12-09T12:49:42.409Z,60.18
2022-12-09T12:52:54.247Z,61.07
2022-12-09T12:55:23.687Z,61.17
2022-12-09T12:58:01.762Z,61.01
2022-12-09T13:00:38.186Z,60.43
2022-12-09T13:03:20.846Z,59.64
2022-12-09T13:05:52.353Z,59.32
2022-12-09T13:08:27.828Z,60.24
2022-12-09T13:10:58.625Z,60.08
2022-12-09T13:13:32.071Z,59.87
2022-12-09T13:16:07.293Z,58.88
2022-12-09T13:18:38.680Z,58.93
2022-12-09T13:21:07.928Z,58.94
2022-12-09T13:23:52.363Z,58.88
2022-12-09T13:26:27.941Z,60.11
2022-12-09T13:29:02.699Z,59.75
2022-12-09T13:31:34.030Z,59.74
2022-12-09T13:34:18.199Z,59.75
2022-12-09T13:36:47.624Z,59.28
2022-12-09T13:39:53.860Z,59.87
2022-12-09T13:42:56.251Z,60.03
2022-12-09T13:45:35.549Z,60.42
2022-12-09T13:48:13.341Z,60.68
2022-12-09T13:50:57.106Z,61.35
2022-12-09T13:53:30.403Z,61.16
2022-12-09T13:56:00.573Z,60.33
2022-12-09T13:58:53.382Z,60.02
2022-12-09T14:01:25.411Z,59.79
2022-12-09T14:04:02.209Z,59.97
2022-12-09T14:06:33.552Z,60.27
2022-12-09T14:09:04.818Z,60.62
2022-12-09T14:11:47.148Z,60.50
2022-12-09T14:14:38.508Z,60.05
2022-12-09T14:17:21.192Z,60.68
2022-12-09T14:20:01.395Z,60.49
2022-12-09T14:22:34.178Z,59.93
2022-12-09T14:25:35.048Z,60.58
2022-12-09T14:28:26.180Z,61.35
2022-12-09T14:30:56.219Z,61.31
2022-12-09T14:33:31.991Z,61.60
2022-12-09T14:36:06.551Z,61.62
2022-12-09T14:39:07.781Z,61.58
2022-12-09T14:41:35.759Z,61.09
2022-12-09T14:44:16.745Z,61.14
2022-12-09T14:46:47.209Z,61.10
2022-12-09T14:49:19.670Z,60.71
2022-12-09T14:51:51.293Z,61.04
2022-12-09T14:54:23.029Z,61.39
2022-12-09T14:56:52.866Z,61.39
2022-12-09T14:59:23.233Z,61.46
2022-12-09T15:01:53.400Z,61.89
2022-12-09T15:04:26.947Z,61.98
2022-12-09T15:07:13.710Z,62.55
2022-12-09T15:09:53.575Z,63.07
2022-12-09T15:12:24.214Z,62.74
2022-12-09T15:14:57.681Z,63.29
2022-12-09T15:17:29.884Z,63.39
2022-12-09T15:20:00.597Z,63.44
2022-12-09T15:22:32.326Z,63.38
2022-12-09T15:25:02.406Z,63.22
2022-12-09T15:27:31.417Z,63.30
2022-12-09T15:29:59.208Z,63.40
2022-12-09T15:32:29.536Z,63.15
2022-12-09T15:35:16.836Z,63.29
2022-12-09T15:37:46.336Z,63.81
2022-12-09T15:40:19.630Z,63.76
2022-12-09T15:42:51.597Z,63.80
2022-12-09T15:45:22.339Z,63.40
2022-12-09T15:47:54.709Z,63.79
2022-12-09T15:50:25.438Z,64.06
2022-12-09T15:52:57.045Z,64.17
2022-12-09T15:55:29.471Z,63.63
2022-12-09T15:58:00.526Z,63.45
2022-12-09T16:00:28.302Z,63.58
2022-12-09T16:02:57.290Z,63.55
2022-12-09T16:05:26.771Z,63.25
2022-12-09T16:08:01.143Z,63.48
2022-12-09T16:10:29.969Z,63.21
2022-12-09T16:13:09.708Z,63.02
2022-12-09T16:15:44.012Z,62.93
2022-12-09T16:18:16.992Z,63.03
2022-12-09T16:20:45.857Z,63.40
2022-12-09T16:23:22.441Z,63.58
2022-12-09T16:25:51.270Z,63.48
2022-12-09T16:28:24.066Z,63.78
2022-12-09T16:30:55.479Z,63.64
2022-12-09T16:33:24.775Z,63.36
2022-12-09T16:35:59.121Z,63.14
2022-12-09T16:38:28.305Z,63.40
2022-12-09T16:41:05.401Z,63.43
2022-12-09T16:43:33.940Z,63.54
2022-12-09T16:46:03.509Z,63.28
2022-12-09T16:48:31.769Z,63.62
2022-12-09T16:51:07.467Z,63.44
2022-12-09T16:53:42.132Z,63.36
2022-12-09T16:56:19.761Z,63.34
2022-12-09T16:58:47.571Z,63.51
2022-12-09T17:01:17.476Z,63.73
2022-12-09T17:03:49.481Z,63.45
2022-12-09T17:06:20.422Z,63.75
2022-12-09T17:08:49.642Z,64.23
2022-12-09T17:11:18.786Z,63.85
2022-12-09T17:13:46.576Z,63.63
2022-12-09T17:16:14.457Z,63.94
2022-12-09T17:18:42.511Z,63.91
2022-12-09T17:21:12.514Z,64.13
2022-12-09T17:23:41.113Z,64.34
2022-12-09T17:26:11.971Z,64.27
2022-12-09T17:28:40.098Z,64.04
2022-12-09T17:31:09.866Z,64.05
2022-12-09T17:33:38.327Z,64.20
2022-12-09T17:36:07.336Z,63.99
2022-12-09T17:38:35.332Z,63.75
2022-12-09T17:41:08.006Z,63.49
2022-12-09T17:43:37.742Z,63.77
2022-12-09T17:46:07.369Z,64.08
2022-12-09T17:48:36.321Z,64.24
2022-12-09T17:51:07.714Z,64.22
2022-12-09T17:53:37.116Z,64.66
2022-12-09T17:56:09.314Z,64.78
2022-12-09T17:58:39.029Z,64.71
2022-12-09T18:01:14.203Z,64.83
2022-12-09T18:04:01.327Z,64.92
2022-12-09T18:06:34.229Z,64.58
2022-12-09T18:09:02.633Z,64.54
2022-12-09T18:11:30.628Z,64.30
2022-12-09T18:14:00.137Z,64.44
2022-12-09T18:16:28.115Z,64.36
2022-12-09T18:18:55.969Z,64.53
2022-12-09T18:21:23.760Z,64.42
2022-12-09T18:23:51.596Z,63.75
2022-12-09T18:26:20.071Z,63.68
2022-12-09T18:28:47.870Z,64.22
2022-12-09T18:31:19.101Z,64.06
2022-12-09T18:33:47.223Z,63.97
2022-12-09T18:36:17.564Z,64.51
2022-12-09T18:38:45.970Z,64.45
2022-12-09T18:41:14.990Z,64.05
2022-12-09T18:43:45.259Z,63.95
2022-12-09T18:46:15.708Z,64.20
2022-12-09T18:48:47.295Z,64.12
2022-12-09T18:51:16.756Z,64.17
2022-12-09T18:53:44.849Z,64.15
2022-12-09T18:56:13.405Z,64.18
2022-12-09T18:59:05.446Z,64.10
2022-12-09T19:01:30.770Z,63.99
2022-12-09T19:04:04.623Z,63.98
2022-12-09T19:06:37.399Z,64.08
2022-12-09T19:09:07.599Z,63.89
2022-12-09T19:11:37.051Z,63.64
2022-12-09T19:14:06.247Z,63.43
2022-12-09T19:16:34.122Z,63.36
2022-12-09T19:19:09.102Z,63.48
2022-12-09T19:21:37.907Z,63.39
2022-12-09T19:24:06.298Z,63.39
2022-12-09T19:26:36.450Z,63.11
2022-12-09T19:29:07.461Z,63.05
2022-12-09T19:31:37.735Z,62.95
2022-12-09T19:34:08.959Z,63.01
2022-12-09T19:36:36.711Z,62.69
2022-12-09T19:39:08.151Z,62.61
2022-12-09T19:41:36.290Z,62.84
2022-12-09T19:44:05.138Z,62.85
2022-12-09T19:46:33.967Z,63.07
2022-12-09T19:49:02.564Z,63.44
2022-12-09T19:51:32.170Z,63.18
2022-12-09T19:54:01.904Z,62.97
2022-12-09T19:56:30.544Z,63.17
2022-12-09T19:58:58.491Z,63.29
2022-12-09T20:01:28.326Z,63.64
2022-12-09T20:04:05.268Z,63.47
2022-12-09T20:06:43.388Z,63.50
2022-12-09T20:09:13.819Z,63.81
2022-12-09T20:11:43.068Z,63.69
2022-12-09T20:14:13.728Z,63.60
2022-12-09T20:16:41.885Z,63.70
2022-12-09T20:19:09.616Z,63.43
2022-12-09T20:21:37.738Z,63.41
2022-12-09T20:24:07.919Z,62.99
2022-12-09T20:26:37.236Z,63.45
2022-12-09T20:29:07.363Z,63.45
2022-12-09T20:31:36.696Z,62.98
2022-12-09T20:34:06.443Z,63.13
2022-12-09T20:36:36.054Z,63.50
2022-12-09T20:39:11.167Z,63.01
2022-12-09T20:41:39.605Z,62.85
2022-12-09T20:44:07.286Z,62.73
2022-12-09T20:46:35.537Z,62.86
2022-12-09T20:49:03.385Z,63.01
2022-12-09T20:51:33.162Z,63.02
2022-12-09T20:54:02.136Z,62.98
2022-12-09T20:56:31.154Z,62.78
2022-12-09T20:58:59.324Z,62.90
2022-12-09T21:01:29.013Z,63.03
2022-12-09T21:03:58.706Z,63.13
2022-12-09T21:06:30.425Z,63.46
2022-12-09T21:09:01.114Z,63.39
2022-12-09T21:11:29.012Z,63.31
2022-12-09T21:14:00.692Z,62.84
2022-12-09T21:16:29.903Z,62.77
2022-12-09T21:18:59.645Z,63.25
2022-12-09T21:21:30.602Z,63.11
2022-12-09T21:23:58.518Z,63.04
2022-12-09T21:26:26.665Z,63.39
2022-12-09T21:28:55.297Z,63.08
2022-12-09T21:31:26.432Z,63.20
2022-12-09T21:33:56.742Z,63.53
2022-12-09T21:36:26.733Z,63.47
2022-12-09T21:38:56.178Z,63.63
2022-12-09T21:41:25.606Z,63.64
2022-12-09T21:43:55.033Z,63.53
2022-12-09T21:46:26.675Z,63.34
2022-12-09T21:49:00.120Z,62.99
2022-12-09T21:51:31.657Z,63.37
2022-12-09T21:53:59.975Z,63.60
2022-12-09T21:56:30.648Z,63.64
2022-12-09T21:58:59.692Z,63.35
2022-12-09T22:01:31.163Z,63.57
2022-12-09T22:04:00.614Z,63.13
2022-12-09T22:06:29.055Z,63.73
2022-12-09T22:08:56.790Z,63.69
2022-12-09T22:11:26.425Z,63.69
2022-12-09T22:13:54.140Z,63.80
2022-12-09T22:16:23.650Z,63.42
2022-12-09T22:18:54.182Z,63.47
2022-12-09T22:21:25.713Z,63.32
2022-12-09T22:23:54.547Z,63.77
2022-12-09T22:26:22.979Z,63.89
2022-12-09T22:28:51.084Z,63.74
2022-12-09T22:31:21.367Z,63.94
2022-12-09T22:33:50.064Z,63.55
2022-12-09T22:36:20.638Z,63.67
2022-12-09T22:38:48.954Z,63.73
2022-12-09T22:41:19.022Z,63.55
2022-12-09T22:43:48.179Z,63.32
2022-12-09T22:46:17.631Z,63.73
2022-12-09T22:48:45.487Z,64.09
2022-12-09T22:51:15.468Z,63.98
2022-12-09T22:53:44.989Z,63.93
2022-12-09T22:56:13.419Z,63.68
2022-12-09T22:58:41.370Z,63.79
2022-12-09T23:01:11.938Z,63.90
2022-12-09T23:03:40.564Z,63.70
2022-12-09T23:06:09.111Z,63.86
2022-12-09T23:08:38.235Z,63.71
2022-12-09T23:11:09.648Z,63.86
2022-12-09T23:13:40.877Z,63.91
2022-12-09T23:16:12.437Z,64.00
2022-12-09T23:18:40.816Z,63.86
2022-12-09T23:21:10.783Z,63.97
2022-12-09T23:23:39.008Z,64.05
2022-12-09T23:26:09.923Z,64.13
2022-12-09T23:28:38.267Z,64.14
2022-12-09T23:31:08.850Z,63.94
2022-12-09T23:33:36.741Z,63.78
2022-12-09T23:36:08.157Z,63.78
2022-12-09T23:38:36.160Z,63.85
2022-12-09T23:41:04.482Z,63.82
2022-12-09T23:43:34.312Z,64.15
2022-12-09T23:46:02.774Z,63.85
2022-12-09T23:48:30.526Z,63.93
2022-12-09T23:51:00.004Z,63.85
2022-12-09T23:53:27.769Z,63.91
2022-12-09T23:55:55.412Z,64.19
2022-12-09T23:58:23.098Z,64.62
